createdAt,value
2023-04-30T00:00:50.434Z,8.21
2023-04-30T00:03:17.313Z,8.33
2023-04-30T00:05:44.331Z,8.35
2023-04-30T00:08:11.054Z,8.33
2023-04-30T00:10:37.776Z,8.36
2023-04-30T00:13:04.519Z,8.36
2023-04-30T00:15:32.726Z,8.29
2023-04-30T00:17:59.587Z,8.27
2023-04-30T00:20:26.355Z,8.29
2023-04-30T00:22:53.148Z,8.13
2023-04-30T00:25:19.910Z,8.09
2023-04-30T00:27:46.681Z,8.19
2023-04-30T00:30:13.440Z,8.13
2023-04-30T00:32:41.662Z,8.09
2023-04-30T00:35:09.229Z,8.04
2023-04-30T00:37:35.987Z,8.04
2023-04-30T00:40:02.775Z,8.02
2023-04-30T00:42:29.580Z,8.08
2023-04-30T00:44:56.332Z,8.07
2023-04-30T00:47:23.168Z,8.08
2023-04-30T00:49:51.422Z,8.11
2023-04-30T00:52:18.437Z,8.07
2023-04-30T00:54:45.506Z,8.04
2023-04-30T00:57:12.847Z,8.04
2023-04-30T00:59:41.182Z,8.03
2023-04-30T01:02:08.158Z,8.00
2023-04-30T01:04:35.762Z,8.03
2023-04-30T01:07:04.014Z,8.06
2023-04-30T01:09:31.582Z,8.13
2023-04-30T01:12:05.710Z,8.14
2023-04-30T01:14:40.759Z,8.16
2023-04-30T01:17:17.633Z,8.11
2023-04-30T01:19:46.028Z,8.12
2023-04-30T01:22:28.038Z,8.16
2023-04-30T01:25:07.671Z,8.11
2023-04-30T01:28:02.022Z,8.06
2023-04-30T01:30:30.010Z,7.98
2023-04-30T01:32:56.812Z,7.72
2023-04-30T01:35:37.041Z,7.71
2023-04-30T01:38:12.021Z,7.67
2023-04-30T01:40:44.751Z,7.71
2023-04-30T01:43:25.108Z,7.81
2023-04-30T01:46:02.065Z,7.77
2023-04-30T01:48:40.586Z,7.54
2023-04-30T01:51:14.337Z,7.46
2023-04-30T01:53:43.057Z,7.43
2023-04-30T01:56:12.767Z,7.53
2023-04-30T01:58:41.724Z,7.50
2023-04-30T02:01:25.941Z,7.37
2023-04-30T02:03:52.881Z,7.31
2023-04-30T02:06:19.799Z,7.14
2023-04-30T02:08:46.550Z,7.10
2023-04-30T02:11:13.302Z,6.89
2023-04-30T02:13:41.412Z,6.82
2023-04-30T02:16:08.233Z,6.80
2023-04-30T02:18:34.973Z,6.59
2023-04-30T02:21:04.582Z,6.33
2023-04-30T02:23:34.177Z,6.37
2023-04-30T02:26:01.063Z,6.28
2023-04-30T02:28:27.801Z,6.17
2023-04-30T02:30:55.969Z,6.05
2023-04-30T02:33:22.802Z,5.98
2023-04-30T02:35:49.520Z,5.97
2023-04-30T02:38:16.350Z,5.80
2023-04-30T02:40:43.150Z,5.76
2023-04-30T02:43:09.935Z,5.83
2023-04-30T02:45:36.709Z,5.95
2023-04-30T02:48:05.218Z,5.98
2023-04-30T02:50:32.006Z,6.07
2023-04-30T02:52:58.820Z,6.04
2023-04-30T02:55:25.601Z,5.90
2023-04-30T02:57:52.451Z,5.75
2023-04-30T03:00:19.396Z,5.63
2023-04-30T03:02:46.283Z,5.80
2023-04-30T03:05:14.609Z,5.89
2023-04-30T03:07:41.360Z,5.95
2023-04-30T03:10:09.468Z,5.91
2023-04-30T03:12:36.219Z,5.87
2023-04-30T03:15:03.119Z,5.86
2023-04-30T03:17:29.966Z,5.83
2023-04-30T03:19:56.933Z,5.82
2023-04-30T03:22:25.301Z,5.86
2023-04-30T03:24:52.141Z,5.89
2023-04-30T03:27:18.886Z,5.96
2023-04-30T03:29:45.703Z,6.01
2023-04-30T03:32:12.561Z,5.98
2023-04-30T03:34:39.612Z,5.97
2023-04-30T03:37:06.485Z,5.94
2023-04-30T03:39:34.653Z,5.93
2023-04-30T03:42:01.360Z,5.88
2023-04-30T03:44:28.181Z,5.76
2023-04-30T03:46:54.932Z,5.86
2023-04-30T03:49:21.696Z,5.89
2023-04-30T03:51:48.485Z,6.02
2023-04-30T03:54:15.353Z,6.04
2023-04-30T03:56:43.560Z,6.09
2023-04-30T03:59:10.409Z,6.12
2023-04-30T04:01:37.330Z,6.19
2023-04-30T04:04:04.254Z,6.22
2023-04-30T04:06:31.168Z,6.24
2023-04-30T04:08:57.928Z,6.24
2023-04-30T04:11:24.812Z,6.24
2023-04-30T04:13:53.016Z,6.35
2023-04-30T04:16:19.855Z,6.29
2023-04-30T04:18:46.756Z,6.29
2023-04-30T04:21:13.689Z,6.46
2023-04-30T04:23:40.433Z,6.63
2023-04-30T04:26:07.335Z,6.71
2023-04-30T04:28:34.084Z,6.66
2023-04-30T04:31:03.466Z,6.64
2023-04-30T04:33:30.284Z,6.67
2023-04-30T04:35:57.114Z,6.78
2023-04-30T04:38:24.125Z,6.84
2023-04-30T04:40:53.874Z,6.87
2023-04-30T04:43:21.019Z,6.89
2023-04-30T04:45:48.024Z,6.94
2023-04-30T04:48:16.183Z,7.16
2023-04-30T04:50:42.920Z,7.20
2023-04-30T04:53:09.865Z,7.19
2023-04-30T04:55:36.604Z,7.23
2023-04-30T04:58:03.384Z,7.36
2023-04-30T05:00:30.162Z,7.43
2023-04-30T05:02:56.954Z,7.51
2023-04-30T05:05:25.157Z,7.58
2023-04-30T05:07:51.907Z,7.66
2023-04-30T05:10:18.861Z,7.74
2023-04-30T05:12:45.561Z,7.91
2023-04-30T05:15:12.329Z,7.97
2023-04-30T05:17:39.160Z,8.01
2023-04-30T05:20:07.470Z,8.13
2023-04-30T05:22:35.686Z,8.29
2023-04-30T05:25:02.466Z,8.41
2023-04-30T05:27:29.304Z,8.52
2023-04-30T05:29:56.298Z,8.63
2023-04-30T05:32:23.494Z,9.02
2023-04-30T05:34:50.445Z,9.37
2023-04-30T05:37:17.288Z,9.95
2023-04-30T05:39:45.455Z,10.57
2023-04-30T05:42:12.225Z,11.31
2023-04-30T05:44:38.964Z,11.66
2023-04-30T05:47:05.796Z,11.35
2023-04-30T05:49:33.696Z,11.04
2023-04-30T05:52:02.501Z,11.39
2023-04-30T05:54:29.341Z,11.52
2023-04-30T05:56:57.532Z,11.43
2023-04-30T05:59:24.354Z,11.24
2023-04-30T06:01:51.275Z,11.28
2023-04-30T06:04:18.040Z,11.28
2023-04-30T06:06:45.177Z,11.33
2023-04-30T06:09:12.066Z,11.27
2023-04-30T06:11:40.405Z,11.37
2023-04-30T06:14:10.632Z,11.48
2023-04-30T06:16:38.209Z,11.68
2023-04-30T06:19:05.007Z,12.40
2023-04-30T06:21:31.892Z,12.93
2023-04-30T06:23:58.731Z,12.93
2023-04-30T06:26:25.567Z,13.13
2023-04-30T06:28:52.298Z,13.55
2023-04-30T06:31:20.446Z,13.44
2023-04-30T06:33:47.235Z,13.39
2023-04-30T06:36:14.278Z,13.56
2023-04-30T06:38:41.093Z,13.53
2023-04-30T06:41:07.909Z,13.48
2023-04-30T06:43:34.662Z,13.36
2023-04-30T06:46:02.049Z,13.34
2023-04-30T06:48:33.187Z,13.32
2023-04-30T06:51:00.007Z,13.31
2023-04-30T06:53:27.985Z,13.34
2023-04-30T06:55:55.049Z,13.41
2023-04-30T06:58:21.896Z,13.41
2023-04-30T07:00:48.693Z,13.50
2023-04-30T07:03:15.651Z,13.60
2023-04-30T07:05:44.193Z,13.66
2023-04-30T07:08:11.017Z,13.73
2023-04-30T07:10:37.758Z,13.75
2023-04-30T07:13:04.591Z,13.68
2023-04-30T07:15:31.364Z,13.68
2023-04-30T07:17:58.251Z,13.61
2023-04-30T07:20:26.357Z,13.59
2023-04-30T07:22:54.507Z,13.55
2023-04-30T07:25:24.220Z,13.50
2023-04-30T07:27:51.714Z,13.45
2023-04-30T07:30:18.761Z,13.31
2023-04-30T07:32:45.527Z,13.17
2023-04-30T07:35:12.590Z,13.09
2023-04-30T07:37:41.244Z,13.16
2023-04-30T07:40:11.284Z,13.31
2023-04-30T07:42:39.222Z,13.28
2023-04-30T07:45:06.815Z,13.25
2023-04-30T07:47:33.811Z,13.25
2023-04-30T07:50:00.756Z,13.26
2023-04-30T07:52:27.587Z,13.30
2023-04-30T07:54:54.500Z,13.36
2023-04-30T07:57:22.687Z,13.39
2023-04-30T07:59:51.357Z,13.21
2023-04-30T08:02:20.033Z,13.25
2023-04-30T08:04:46.943Z,13.01
2023-04-30T08:07:13.712Z,13.10
2023-04-30T08:09:40.631Z,13.49
2023-04-30T08:12:08.942Z,13.84
2023-04-30T08:14:37.260Z,14.23
2023-04-30T08:17:04.279Z,14.06
2023-04-30T08:19:31.207Z,14.42
2023-04-30T08:21:59.017Z,14.84
2023-04-30T08:24:25.906Z,15.23
2023-04-30T08:26:54.224Z,15.34
2023-04-30T08:29:21.778Z,15.78
2023-04-30T08:31:50.124Z,15.48
2023-04-30T08:34:16.991Z,14.82
2023-04-30T08:36:43.728Z,14.74
2023-04-30T08:39:10.452Z,14.70
2023-04-30T08:41:40.009Z,14.69
2023-04-30T08:44:08.330Z,14.93
2023-04-30T08:46:38.886Z,15.09
2023-04-30T08:49:07.424Z,15.57
2023-04-30T08:51:34.418Z,15.76
2023-04-30T08:54:01.203Z,16.23
2023-04-30T08:56:30.195Z,16.80
2023-04-30T08:58:57.133Z,17.33
2023-04-30T09:01:24.848Z,17.78
2023-04-30T09:03:51.998Z,18.26
2023-04-30T09:06:20.344Z,18.67
2023-04-30T09:08:48.390Z,18.93
2023-04-30T09:11:23.309Z,18.95
2023-04-30T09:13:50.897Z,18.85
2023-04-30T09:16:17.726Z,18.79
2023-04-30T09:18:44.604Z,19.21
2023-04-30T09:21:11.362Z,19.34
2023-04-30T09:23:54.750Z,19.55
2023-04-30T09:26:26.087Z,19.58
2023-04-30T09:28:57.011Z,19.73
2023-04-30T09:31:24.707Z,19.55
2023-04-30T09:33:52.135Z,19.26
2023-04-30T09:36:19.284Z,18.71
2023-04-30T09:38:47.538Z,18.28
2023-04-30T09:41:25.138Z,17.84
2023-04-30T09:43:52.346Z,17.46
2023-04-30T09:46:20.256Z,16.98
2023-04-30T09:48:47.547Z,16.76
2023-04-30T09:51:14.333Z,16.48
2023-04-30T09:53:42.906Z,16.12
2023-04-30T09:56:12.469Z,15.99
2023-04-30T09:58:40.827Z,15.77
2023-04-30T10:01:08.917Z,15.61
2023-04-30T10:03:36.435Z,15.39
2023-04-30T10:06:04.030Z,15.51
2023-04-30T10:08:34.003Z,16.07
2023-04-30T10:11:05.672Z,16.32
2023-04-30T10:13:51.588Z,16.29
2023-04-30T10:16:30.114Z,15.98
2023-04-30T10:19:02.949Z,16.06
2023-04-30T10:21:31.397Z,16.04
2023-04-30T10:23:58.337Z,16.05
2023-04-30T10:26:25.228Z,15.91
2023-04-30T10:28:54.274Z,15.68
2023-04-30T10:31:21.988Z,15.75
2023-04-30T10:33:59.221Z,16.23
2023-04-30T10:36:39.986Z,16.84
2023-04-30T10:39:07.412Z,17.27
2023-04-30T10:41:34.278Z,17.45
2023-04-30T10:44:03.137Z,17.55
2023-04-30T10:46:30.065Z,17.58
2023-04-30T10:48:57.091Z,18.01
2023-04-30T10:51:23.969Z,18.34
2023-04-30T10:53:52.229Z,18.67
2023-04-30T10:56:32.097Z,18.54
2023-04-30T10:58:59.841Z,18.53
2023-04-30T11:01:28.994Z,18.72
2023-04-30T11:04:06.569Z,18.55
2023-04-30T11:07:08.479Z,18.33
2023-04-30T11:09:37.291Z,18.16
2023-04-30T11:12:05.213Z,18.02
2023-04-30T11:14:32.941Z,18.12
2023-04-30T11:17:01.393Z,18.30
2023-04-30T11:19:28.609Z,18.58
2023-04-30T11:22:17.662Z,18.57
2023-04-30T11:24:55.046Z,18.53
2023-04-30T11:27:23.988Z,18.30
2023-04-30T11:29:51.656Z,18.16
2023-04-30T11:32:21.264Z,17.93
2023-04-30T11:34:48.421Z,17.75
2023-04-30T11:37:19.551Z,17.59
2023-04-30T11:39:47.008Z,16.97
2023-04-30T11:42:16.524Z,17.02
2023-04-30T11:44:43.271Z,16.99
2023-04-30T11:47:10.142Z,16.96
2023-04-30T11:49:38.740Z,16.88
2023-04-30T11:52:05.647Z,16.79
2023-04-30T11:54:32.488Z,16.77
2023-04-30T11:56:59.349Z,16.78
2023-04-30T11:59:26.496Z,16.55
2023-04-30T12:01:54.060Z,16.92
2023-04-30T12:04:20.992Z,17.36
2023-04-30T12:06:49.452Z,17.38
2023-04-30T12:09:16.451Z,18.05
2023-04-30T12:11:43.183Z,18.47
2023-04-30T12:14:10.935Z,18.57
2023-04-30T12:16:42.895Z,18.86
2023-04-30T12:19:10.093Z,19.05
2023-04-30T12:21:38.150Z,18.95
2023-04-30T12:24:06.487Z,18.26
2023-04-30T12:26:36.742Z,18.14
2023-04-30T12:29:04.940Z,17.68
2023-04-30T12:31:32.666Z,17.47
2023-04-30T12:34:04.304Z,17.23
2023-04-30T12:36:32.042Z,17.11
2023-04-30T12:39:05.624Z,16.87
2023-04-30T12:41:36.576Z,16.77
2023-04-30T12:44:17.313Z,16.17
2023-04-30T12:46:44.394Z,15.87
2023-04-30T12:49:11.513Z,15.65
2023-04-30T12:51:42.276Z,15.79
2023-04-30T12:54:09.141Z,15.82
2023-04-30T12:56:37.322Z,15.85
2023-04-30T12:59:14.569Z,15.59
2023-04-30T13:01:45.396Z,15.90
2023-04-30T13:04:12.251Z,16.23
2023-04-30T13:06:39.053Z,16.66
2023-04-30T13:09:05.960Z,17.05
2023-04-30T13:11:32.760Z,17.44
2023-04-30T13:14:00.908Z,17.66
2023-04-30T13:16:27.972Z,17.85
2023-04-30T13:18:55.024Z,17.77
2023-04-30T13:21:22.992Z,17.55
2023-04-30T13:23:53.390Z,17.39
2023-04-30T13:26:20.871Z,17.10
2023-04-30T13:28:47.714Z,16.97
2023-04-30T13:31:15.909Z,16.82
2023-04-30T13:33:42.836Z,16.77
2023-04-30T13:36:09.833Z,16.72
2023-04-30T13:38:36.658Z,16.57
2023-04-30T13:41:03.444Z,16.52
2023-04-30T13:43:30.227Z,16.58
2023-04-30T13:45:57.116Z,16.84
2023-04-30T13:48:25.278Z,17.13
2023-04-30T13:50:52.325Z,17.46
2023-04-30T13:53:19.099Z,17.59
2023-04-30T13:55:45.938Z,17.65
2023-04-30T13:58:20.052Z,17.68
2023-04-30T14:00:47.065Z,17.56
2023-04-30T14:03:13.894Z,17.58
2023-04-30T14:05:42.547Z,17.62
2023-04-30T14:08:09.544Z,17.44
2023-04-30T14:10:36.355Z,17.32
2023-04-30T14:13:03.169Z,17.31
2023-04-30T14:15:30.152Z,17.14
2023-04-30T14:17:56.980Z,17.09
2023-04-30T14:20:23.908Z,16.93
2023-04-30T14:22:52.108Z,16.70
2023-04-30T14:25:18.962Z,16.78
2023-04-30T14:27:46.566Z,16.93
2023-04-30T14:30:13.725Z,17.11
2023-04-30T14:32:40.562Z,17.12
2023-04-30T14:35:08.550Z,17.29
2023-04-30T14:37:35.387Z,17.37
2023-04-30T14:40:04.541Z,17.42
2023-04-30T14:42:31.274Z,17.45
2023-04-30T14:44:58.056Z,17.48
2023-04-30T14:47:24.867Z,17.52
2023-04-30T14:49:51.712Z,17.48
2023-04-30T14:52:18.612Z,17.42
2023-04-30T14:54:45.590Z,17.18
2023-04-30T14:57:14.563Z,17.04
2023-04-30T14:59:41.335Z,17.02
2023-04-30T15:02:08.191Z,16.87
2023-04-30T15:04:35.044Z,16.64
2023-04-30T15:07:01.819Z,16.67
2023-04-30T15:09:28.607Z,16.55
2023-04-30T15:11:55.340Z,16.37
2023-04-30T15:19:14.788Z,15.54
2023-04-30T15:21:41.620Z,15.48
2023-04-30T15:24:08.431Z,15.41
2023-04-30T15:26:35.306Z,15.22
2023-04-30T15:29:02.123Z,15.11
2023-04-30T15:31:28.930Z,15.23
2023-04-30T15:33:55.716Z,15.39
2023-04-30T15:36:23.981Z,15.52
2023-04-30T15:38:50.707Z,15.70
2023-04-30T15:41:17.436Z,15.79
2023-04-30T15:43:44.196Z,15.92
2023-04-30T15:46:11.097Z,15.91
2023-04-30T15:48:37.893Z,15.62
2023-04-30T15:51:04.627Z,15.47
2023-04-30T15:53:32.753Z,15.39
2023-04-30T15:55:59.599Z,15.35
2023-04-30T15:58:26.365Z,15.28
2023-04-30T16:00:53.116Z,14.99
2023-04-30T16:03:20.163Z,14.95
2023-04-30T16:05:47.277Z,14.99
2023-04-30T16:08:14.992Z,15.02
2023-04-30T16:10:43.235Z,15.08
2023-04-30T16:13:09.980Z,15.03
2023-04-30T16:15:36.796Z,14.96
2023-04-30T16:18:03.827Z,15.04
2023-04-30T16:20:31.461Z,14.99
2023-04-30T16:23:01.150Z,14.95
2023-04-30T16:25:33.196Z,14.81
2023-04-30T16:28:03.568Z,14.52
2023-04-30T16:30:32.540Z,14.61
2023-04-30T16:33:02.155Z,14.61
2023-04-30T16:35:33.962Z,14.55
2023-04-30T16:38:04.362Z,14.47
2023-04-30T16:40:34.389Z,14.46
2023-04-30T16:43:03.407Z,14.40
2023-04-30T16:45:37.980Z,14.39
2023-04-30T16:48:07.989Z,14.26
2023-04-30T16:50:37.923Z,14.24
2023-04-30T16:53:09.163Z,14.25
2023-04-30T16:55:37.269Z,14.14
2023-04-30T16:58:05.637Z,14.13
2023-04-30T17:00:32.478Z,14.05
2023-04-30T17:02:59.513Z,13.98
2023-04-30T17:05:26.419Z,13.87
2023-04-30T17:07:53.214Z,13.75
2023-04-30T17:10:19.982Z,13.66
2023-04-30T17:12:46.740Z,13.58
2023-04-30T17:15:14.873Z,13.53
2023-04-30T17:17:41.721Z,13.47
2023-04-30T17:20:09.276Z,13.44
2023-04-30T17:22:36.081Z,13.44
2023-04-30T17:25:02.839Z,13.28
2023-04-30T17:27:29.673Z,13.20
2023-04-30T17:29:56.745Z,13.00
2023-04-30T17:32:25.373Z,12.92
2023-04-30T17:34:52.182Z,12.76
2023-04-30T17:37:18.943Z,12.73
2023-04-30T17:39:45.690Z,12.52
2023-04-30T17:42:12.464Z,12.25
2023-04-30T17:44:39.257Z,12.11
2023-04-30T17:47:06.397Z,11.96
2023-04-30T17:49:34.586Z,11.77
2023-04-30T17:52:01.452Z,11.80
2023-04-30T17:54:29.487Z,11.59
2023-04-30T17:56:56.334Z,11.54
2023-04-30T17:59:23.113Z,11.54
2023-04-30T18:01:49.857Z,11.43
2023-04-30T18:04:17.177Z,11.48
2023-04-30T18:06:45.829Z,11.38
2023-04-30T18:09:12.676Z,11.37
2023-04-30T18:11:39.473Z,11.31
2023-04-30T18:14:06.723Z,11.29
2023-04-30T18:16:34.486Z,11.23
2023-04-30T18:19:01.717Z,11.18
2023-04-30T18:21:28.895Z,11.14
2023-04-30T18:23:57.606Z,10.93
2023-04-30T18:26:24.661Z,10.94
2023-04-30T18:28:51.704Z,10.91
2023-04-30T18:31:18.626Z,10.84
2023-04-30T18:33:45.450Z,10.96
2023-04-30T18:36:12.356Z,10.81
2023-04-30T18:38:39.227Z,10.73
2023-04-30T18:41:07.355Z,10.72
2023-04-30T18:43:34.136Z,10.67
2023-04-30T18:46:00.945Z,10.62
2023-04-30T18:48:27.710Z,10.48
2023-04-30T18:50:54.514Z,10.39
2023-04-30T18:53:21.341Z,10.44
2023-04-30T18:55:48.191Z,10.43
2023-04-30T18:58:16.368Z,10.42
2023-04-30T19:00:43.366Z,10.37
2023-04-30T19:03:10.332Z,10.17
2023-04-30T19:05:37.334Z,10.17
2023-04-30T19:08:04.177Z,10.12
2023-04-30T19:10:30.970Z,10.13
2023-04-30T19:12:57.765Z,10.09
2023-04-30T19:15:26.307Z,10.07
2023-04-30T19:17:53.199Z,10.08
2023-04-30T19:20:20.034Z,10.06
2023-04-30T19:22:48.444Z,10.05
2023-04-30T19:25:16.817Z,10.06
2023-04-30T19:27:43.790Z,9.95
2023-04-30T19:30:11.741Z,9.89
2023-04-30T19:32:40.071Z,9.85
2023-04-30T19:35:07.828Z,9.81
2023-04-30T19:37:34.683Z,9.91
2023-04-30T19:40:01.483Z,9.82
2023-04-30T19:42:28.209Z,9.80
2023-04-30T19:44:54.954Z,9.84
2023-04-30T19:47:22.936Z,9.73
2023-04-30T19:49:51.132Z,9.66
2023-04-30T19:52:17.933Z,9.67
2023-04-30T19:54:44.714Z,9.71
2023-04-30T19:57:11.515Z,9.64
2023-04-30T19:59:38.241Z,9.59
2023-04-30T20:02:05.124Z,9.49
2023-04-30T20:04:31.909Z,9.48
2023-04-30T20:07:00.118Z,9.40
2023-04-30T20:09:27.084Z,9.41
2023-04-30T20:11:54.643Z,9.30
2023-04-30T20:14:21.427Z,9.38
2023-04-30T20:16:50.640Z,9.45
2023-04-30T20:19:17.384Z,9.39
2023-04-30T20:21:44.143Z,9.38
2023-04-30T20:24:12.324Z,9.35
2023-04-30T20:26:39.073Z,9.31
2023-04-30T20:29:05.795Z,9.22
2023-04-30T20:31:32.596Z,9.18
2023-04-30T20:33:59.391Z,9.19
2023-04-30T20:36:26.106Z,9.16
2023-04-30T20:38:52.817Z,9.06
2023-04-30T20:41:21.001Z,9.07
2023-04-30T20:43:47.783Z,9.06
2023-04-30T20:46:14.636Z,9.01
2023-04-30T20:48:41.456Z,8.99
2023-04-30T20:51:09.400Z,9.02
2023-04-30T20:53:36.132Z,9.03
2023-04-30T20:56:03.035Z,8.99
2023-04-30T20:58:31.172Z,8.91
2023-04-30T21:00:57.946Z,8.90
2023-04-30T21:03:24.982Z,8.87
2023-04-30T21:05:51.844Z,8.87
2023-04-30T21:08:18.607Z,8.87
2023-04-30T21:10:45.340Z,8.81
2023-04-30T21:13:12.168Z,8.78
2023-04-30T21:15:40.429Z,8.90
2023-04-30T21:18:07.251Z,8.84
2023-04-30T21:20:34.251Z,8.84
2023-04-30T21:23:01.576Z,8.78
2023-04-30T21:25:28.296Z,8.72
2023-04-30T21:27:55.132Z,8.80
2023-04-30T21:30:24.219Z,8.74
2023-04-30T21:32:53.933Z,8.76
2023-04-30T21:35:20.969Z,8.79
2023-04-30T21:37:47.996Z,8.77
2023-04-30T21:40:14.693Z,8.77
2023-04-30T21:42:41.456Z,8.83
2023-04-30T21:45:08.798Z,8.78
2023-04-30T21:47:35.622Z,8.78
2023-04-30T21:50:04.275Z,8.79
2023-04-30T21:52:31.102Z,8.76
2023-04-30T21:54:57.891Z,8.79
2023-04-30T21:57:24.659Z,8.78
2023-04-30T21:59:51.501Z,8.71
2023-04-30T22:02:23.839Z,8.71
2023-04-30T22:04:51.296Z,8.66
2023-04-30T22:07:19.522Z,8.66
2023-04-30T22:09:46.332Z,8.39
2023-04-30T22:12:13.172Z,8.49
2023-04-30T22:14:39.914Z,8.53
2023-04-30T22:17:06.653Z,8.47
2023-04-30T22:19:33.396Z,8.45
2023-04-30T22:22:00.148Z,8.51
2023-04-30T22:24:28.397Z,8.53
2023-04-30T22:26:55.203Z,8.51
2023-04-30T22:29:21.971Z,8.65
2023-04-30T22:31:48.838Z,8.66
2023-04-30T22:34:15.690Z,8.59
2023-04-30T22:36:43.957Z,8.47
2023-04-30T22:39:10.789Z,8.40
2023-04-30T22:41:38.978Z,8.34
2023-04-30T22:44:05.987Z,8.34
2023-04-30T22:46:33.070Z,8.42
2023-04-30T22:49:00.540Z,8.52
2023-04-30T22:51:27.390Z,8.46
2023-04-30T22:53:54.550Z,8.48
2023-04-30T22:56:21.395Z,8.21
2023-04-30T22:58:49.607Z,8.21
2023-04-30T23:01:16.524Z,8.16
2023-04-30T23:03:43.356Z,8.32
2023-04-30T23:06:10.139Z,8.35
2023-04-30T23:08:37.003Z,8.24
2023-04-30T23:11:03.747Z,8.35
2023-04-30T23:13:30.729Z,8.23
2023-04-30T23:15:59.073Z,8.15
2023-04-30T23:18:25.997Z,8.10
2023-04-30T23:20:54.963Z,8.00
2023-04-30T23:23:21.740Z,7.98
2023-04-30T23:25:48.489Z,8.09
2023-04-30T23:28:15.347Z,8.11
2023-04-30T23:30:42.185Z,8.12
2023-04-30T23:33:10.350Z,8.14
2023-04-30T23:35:37.369Z,8.17
2023-04-30T23:38:04.116Z,8.32
2023-04-30T23:40:30.885Z,8.19
2023-04-30T23:42:57.724Z,8.31
2023-04-30T23:45:24.455Z,8.26
2023-04-30T23:47:51.281Z,8.22
2023-04-30T23:50:19.475Z,8.31
2023-04-30T23:52:46.246Z,8.14
2023-04-30T23:55:13.242Z,8.13
2023-04-30T23:57:39.973Z,8.14
